Terminal Aerodrome Forecast
Issued by NWS Bismarck, ND

Home | Current Version | Previous Version | Text Only | Print | Product List | Glossary On
Versions: 1 2 3 4 5 6 7 8 9 10 11 12 13 14
000
FTUS43 KBIS 271139
TAFBIS
TAF
KBIS 271139Z 2712/2812 15006KT P6SM VCTS FEW080CB BKN100
      TEMPO 2712/2716 -SHRA OVC070
     FM271600 15006KT P6SM VCSH BKN080 BKN130
     FM271900 14008KT P6SM SCT070 BKN250
     FM280700 14005KT P6SM FEW070 SCT200=

USA.gov is the U.S. government's official web portal to all federal, state and local government web resources and services.